createdAt,value
2019-02-21T00:00:40.829Z,82.50
2019-02-21T00:03:09.383Z,82.03
2019-02-21T00:05:37.887Z,84.03
2019-02-21T00:08:06.489Z,83.13
2019-02-21T00:10:34.979Z,85.87
2019-02-21T00:13:03.554Z,82.37
2019-02-21T00:15:32.154Z,82.57
2019-02-21T00:18:00.655Z,82.47
2019-02-21T00:20:29.227Z,81.40
2019-02-21T00:22:57.850Z,81.90
2019-02-21T00:25:26.417Z,83.07
2019-02-21T00:27:54.917Z,85.23
2019-02-21T00:30:34.634Z,80.70
2019-02-21T00:32:53.834Z,82.97
2019-02-21T00:35:22.147Z,83.63
2019-02-21T00:37:50.436Z,85.30
2019-02-21T00:40:19.017Z,85.87
2019-02-21T00:42:47.516Z,82.43
2019-02-21T00:45:16.305Z,83.83
2019-02-21T00:47:44.853Z,13.20
2019-02-21T00:50:13.414Z,12.50
2019-02-21T00:52:42.017Z,12.73
2019-02-21T00:55:10.963Z,11.73
2019-02-21T00:57:39.564Z,11.70
2019-02-21T01:00:11.412Z,12.00
2019-02-21T01:02:39.976Z,14.30
2019-02-21T01:05:08.482Z,12.87
2019-02-21T01:07:37.149Z,12.07
2019-02-21T01:10:07.535Z,11.03
2019-02-21T01:12:36.109Z,13.67
2019-02-21T01:15:07.117Z,13.07
2019-02-21T01:17:35.761Z,13.23
2019-02-21T01:20:05.797Z,12.23
2019-02-21T01:22:34.470Z,10.70
2019-02-21T01:25:03.044Z,12.37
2019-02-21T01:27:31.628Z,11.53
2019-02-21T01:30:00.254Z,10.43
2019-02-21T01:32:29.190Z,11.83
2019-02-21T01:34:57.832Z,11.93
2019-02-21T01:37:26.511Z,13.40
2019-02-21T01:39:55.022Z,12.13
2019-02-21T01:42:23.639Z,11.57
2019-02-21T01:44:52.247Z,12.60
2019-02-21T01:47:20.901Z,13.37
2019-02-21T01:49:49.394Z,12.20
2019-02-21T01:52:17.988Z,13.13
2019-02-21T01:54:46.618Z,12.37
2019-02-21T01:57:15.255Z,12.90
2019-02-21T01:59:43.918Z,11.73
2019-02-21T02:02:12.556Z,11.70
2019-02-21T02:04:41.187Z,11.70
2019-02-21T02:07:09.738Z,11.63
2019-02-21T02:09:38.316Z,10.33
2019-02-21T02:12:06.951Z,11.03
2019-02-21T02:14:35.541Z,12.23
2019-02-21T02:17:04.184Z,11.00
2019-02-21T02:19:32.811Z,13.17
2019-02-21T02:22:01.430Z,11.80
2019-02-21T02:24:30.071Z,11.03
2019-02-21T02:26:58.641Z,11.50
2019-02-21T02:29:27.317Z,10.80
2019-02-21T02:31:55.956Z,10.37
2019-02-21T02:34:24.605Z,10.17
2019-02-21T02:36:53.647Z,10.43
2019-02-21T02:39:22.272Z,10.77
2019-02-21T02:41:50.914Z,10.17
2019-02-21T02:44:19.450Z,10.13
2019-02-21T02:46:48.071Z,9.37
2019-02-21T02:49:16.652Z,9.70
2019-02-21T02:51:45.182Z,10.13
2019-02-21T02:54:13.823Z,10.70
2019-02-21T02:56:42.627Z,10.00
2019-02-21T02:59:11.341Z,9.70
2019-02-21T03:01:39.973Z,11.07
2019-02-21T03:04:08.547Z,10.27
2019-02-21T03:06:37.235Z,10.83
2019-02-21T03:09:08.289Z,8.43
2019-02-21T03:11:36.799Z,10.03
2019-02-21T03:14:05.334Z,9.97
2019-02-21T03:16:33.967Z,9.70
2019-02-21T03:19:02.613Z,10.00
2019-02-21T03:21:31.278Z,10.10
2019-02-21T03:23:59.900Z,9.57
2019-02-21T03:26:28.541Z,10.30
2019-02-21T03:28:57.648Z,8.87
2019-02-21T03:31:26.299Z,8.77
2019-02-21T03:33:54.881Z,11.83
2019-02-21T03:36:23.607Z,10.90
2019-02-21T03:38:52.164Z,10.30
2019-02-21T03:41:20.728Z,8.03
2019-02-21T03:43:49.358Z,8.20
2019-02-21T03:46:17.921Z,11.90
2019-02-21T03:48:46.491Z,9.33
2019-02-21T03:51:15.023Z,10.23
2019-02-21T03:53:43.579Z,7.77
2019-02-21T03:56:12.210Z,9.17
2019-02-21T03:58:40.805Z,8.93
2019-02-21T04:01:09.369Z,8.77
2019-02-21T04:03:37.873Z,8.10
2019-02-21T04:06:06.539Z,8.37
2019-02-21T04:08:35.188Z,9.03
2019-02-21T04:11:03.677Z,7.43
2019-02-21T04:13:32.335Z,8.43
2019-02-21T04:16:01.113Z,8.40
2019-02-21T04:18:29.740Z,9.37
2019-02-21T04:20:58.267Z,7.53
2019-02-21T04:23:26.842Z,7.90
2019-02-21T04:25:55.326Z,8.07
2019-02-21T04:28:23.854Z,8.13
2019-02-21T04:30:52.427Z,9.00
2019-02-21T04:33:20.985Z,8.17
2019-02-21T04:35:49.594Z,8.10
2019-02-21T04:38:18.171Z,8.33
2019-02-21T04:40:46.727Z,6.60
2019-02-21T04:43:15.271Z,6.97
2019-02-21T04:45:43.829Z,7.70
2019-02-21T04:48:12.385Z,7.03
2019-02-21T04:50:41.371Z,7.93
2019-02-21T04:53:09.932Z,6.50
2019-02-21T04:55:38.420Z,8.03
2019-02-21T04:58:07.023Z,8.43
2019-02-21T05:00:36.047Z,7.20
2019-02-21T05:03:04.611Z,7.40
2019-02-21T05:05:33.141Z,7.23
2019-02-21T05:08:01.695Z,7.80
2019-02-21T05:10:30.263Z,7.47
2019-02-21T05:12:59.905Z,7.20
2019-02-21T05:15:28.384Z,5.73
2019-02-21T05:17:56.872Z,6.80
2019-02-21T05:20:25.422Z,7.33
2019-02-21T05:22:53.990Z,8.67
2019-02-21T05:25:22.487Z,7.37
2019-02-21T05:27:52.496Z,7.83
2019-02-21T05:30:22.699Z,8.30
2019-02-21T05:32:58.885Z,8.07
2019-02-21T05:35:31.330Z,8.00
2019-02-21T05:38:03.655Z,8.93
2019-02-21T05:40:33.864Z,7.77
2019-02-21T05:45:46.883Z,8.17
2019-02-21T05:48:35.045Z,8.93
2019-02-21T05:51:08.217Z,9.67
2019-02-21T05:53:41.133Z,10.13
2019-02-21T05:56:17.033Z,9.67
2019-02-21T05:58:56.283Z,8.80
2019-02-21T06:01:26.499Z,10.57
2019-02-21T06:04:08.860Z,10.07
2019-02-21T06:06:39.073Z,10.20
2019-02-21T06:09:09.796Z,12.33
2019-02-21T06:11:46.056Z,12.83
2019-02-21T06:14:25.331Z,12.00
2019-02-21T06:17:01.670Z,12.93
2019-02-21T06:19:34.692Z,12.80
2019-02-21T06:22:21.462Z,13.27
2019-02-21T06:24:51.598Z,13.50
2019-02-21T06:27:24.760Z,12.90
2019-02-21T06:30:00.904Z,13.27
2019-02-21T06:32:29.541Z,13.50
2019-02-21T06:34:58.041Z,13.57
2019-02-21T06:37:26.680Z,13.33
2019-02-21T06:39:56.252Z,87.27
2019-02-21T06:42:24.900Z,80.87
2019-02-21T06:44:53.759Z,97.10
2019-02-21T06:47:22.415Z,92.23
2019-02-21T06:49:51.092Z,91.13
2019-02-21T06:52:19.671Z,129.00
2019-02-21T06:54:48.250Z,90.93
2019-02-21T06:57:16.923Z,89.17
2019-02-21T06:59:45.614Z,92.93
2019-02-21T07:02:14.230Z,91.53
2019-02-21T07:04:42.904Z,86.90
2019-02-21T07:07:11.537Z,83.47
2019-02-21T07:09:40.652Z,86.47
2019-02-21T07:12:10.604Z,83.13
2019-02-21T07:14:40.301Z,95.30
2019-02-21T07:17:08.819Z,91.67
2019-02-21T07:19:37.438Z,88.33
2019-02-21T07:22:06.372Z,93.90
2019-02-21T07:24:38.324Z,94.30
2019-02-21T07:27:06.487Z,69.93
2019-02-21T07:29:35.116Z,12.43
2019-02-21T07:32:03.743Z,14.37
2019-02-21T07:34:32.765Z,26.77
2019-02-21T07:37:01.269Z,14.00
2019-02-21T07:39:36.125Z,13.57
2019-02-21T07:42:00.215Z,12.90
2019-02-21T07:44:28.845Z,11.40
2019-02-21T07:46:57.482Z,12.70
2019-02-21T07:49:26.171Z,15.37
2019-02-21T07:51:54.747Z,13.03
2019-02-21T07:54:23.387Z,15.07
2019-02-21T07:56:52.077Z,14.10
2019-02-21T07:59:20.638Z,15.07
2019-02-21T08:01:49.271Z,13.63
2019-02-21T08:04:17.805Z,14.63
2019-02-21T08:06:46.817Z,15.50
2019-02-21T08:09:15.381Z,12.73
2019-02-21T08:11:43.987Z,17.00
2019-02-21T08:14:12.633Z,17.73
2019-02-21T08:16:43.782Z,14.10
2019-02-21T08:19:12.470Z,14.23
2019-02-21T08:21:43.320Z,20.03
2019-02-21T08:24:11.399Z,17.40
2019-02-21T08:26:40.102Z,18.63
2019-02-21T08:29:08.734Z,16.13
2019-02-21T08:31:37.376Z,15.43
2019-02-21T08:34:07.630Z,17.77
2019-02-21T08:36:36.281Z,18.93
2019-02-21T08:39:06.530Z,21.20
2019-02-21T08:41:35.197Z,19.60
2019-02-21T08:44:03.889Z,17.80
2019-02-21T08:46:32.421Z,16.73
2019-02-21T08:49:01.009Z,16.67
2019-02-21T08:51:29.587Z,19.33
2019-02-21T08:53:58.193Z,20.20
2019-02-21T08:56:26.775Z,20.03
2019-02-21T08:58:55.361Z,18.63
2019-02-21T09:01:23.988Z,20.57
2019-02-21T09:03:52.605Z,18.53
2019-02-21T09:06:21.262Z,19.53
2019-02-21T09:08:50.199Z,21.70
2019-02-21T09:11:19.732Z,21.23
2019-02-21T09:13:48.471Z,20.77
2019-02-21T09:16:17.781Z,17.90
2019-02-21T09:18:47.310Z,20.67
2019-02-21T09:21:15.890Z,101.43
2019-02-21T09:23:44.535Z,101.50
2019-02-21T09:26:13.215Z,58.07
2019-02-21T09:28:41.789Z,19.87
2019-02-21T09:31:10.275Z,20.47
2019-02-21T09:33:38.959Z,15.63
2019-02-21T09:36:07.604Z,19.93
2019-02-21T09:38:36.102Z,18.20
2019-02-21T09:41:05.168Z,20.67
2019-02-21T09:43:33.792Z,23.17
2019-02-21T09:46:02.436Z,18.70
2019-02-21T09:48:31.108Z,20.97
2019-02-21T09:50:59.746Z,21.23
2019-02-21T09:53:28.237Z,22.63
2019-02-21T09:55:56.935Z,19.53
2019-02-21T09:58:25.487Z,14.00
2019-02-21T10:00:54.142Z,98.83
2019-02-21T10:03:22.755Z,105.17
2019-02-21T10:05:51.400Z,101.00
2019-02-21T10:08:21.977Z,100.53
2019-02-21T10:10:50.464Z,91.67
2019-02-21T10:13:19.104Z,87.30
2019-02-21T10:15:47.686Z,83.67
2019-02-21T10:18:16.303Z,76.00
2019-02-21T10:20:45.738Z,67.07
2019-02-21T10:23:14.401Z,74.60
2019-02-21T10:25:43.068Z,83.03
2019-02-21T10:28:11.753Z,84.50
2019-02-21T10:30:40.379Z,61.23
2019-02-21T10:33:09.055Z,98.80
2019-02-21T10:35:37.704Z,82.37
2019-02-21T10:38:06.348Z,85.23
2019-02-21T10:40:34.888Z,88.87
2019-02-21T10:43:03.526Z,88.23
2019-02-21T10:45:32.092Z,88.30
2019-02-21T10:48:00.708Z,97.63
2019-02-21T10:50:29.285Z,99.77
2019-02-21T10:52:57.937Z,100.70
2019-02-21T10:55:26.648Z,104.47
2019-02-21T10:57:55.295Z,100.60
2019-02-21T11:00:29.509Z,105.60
2019-02-21T11:02:58.186Z,102.00
2019-02-21T11:05:26.886Z,102.13
2019-02-21T11:07:55.432Z,110.17
2019-02-21T11:10:29.882Z,97.63
2019-02-21T11:12:58.547Z,104.73
2019-02-21T11:15:27.166Z,99.20
2019-02-21T11:17:55.874Z,101.07
2019-02-21T11:20:24.509Z,101.90
2019-02-21T11:22:53.999Z,99.87
2019-02-21T11:25:22.631Z,104.53
2019-02-21T11:27:51.211Z,99.37
2019-02-21T11:30:21.460Z,99.40
2019-02-21T11:32:50.078Z,104.77
2019-02-21T11:35:18.676Z,102.20
2019-02-21T11:37:47.649Z,125.33
2019-02-21T11:40:18.519Z,103.60
2019-02-21T11:42:47.100Z,103.50
2019-02-21T11:45:19.537Z,100.57
2019-02-21T11:47:48.140Z,99.53
2019-02-21T11:50:18.587Z,106.70
2019-02-21T11:52:50.227Z,103.23
2019-02-21T11:55:26.610Z,96.27
2019-02-21T11:57:55.590Z,115.87
2019-02-21T12:00:26.321Z,102.90
2019-02-21T12:02:54.856Z,99.03
2019-02-21T12:05:32.003Z,211.67
2019-02-21T12:07:54.054Z,90.17
2019-02-21T12:10:22.664Z,82.47
2019-02-21T12:12:51.247Z,86.93
2019-02-21T12:15:22.349Z,87.70
2019-02-21T12:17:51.477Z,77.57
2019-02-21T12:20:20.454Z,81.03
2019-02-21T12:22:49.157Z,80.37
2019-02-21T12:25:38.741Z,80.17
2019-02-21T12:28:07.306Z,68.10
2019-02-21T12:30:35.941Z,87.70
2019-02-21T12:33:04.540Z,86.80
2019-02-21T12:35:33.168Z,82.40
2019-02-21T12:38:01.736Z,80.90
2019-02-21T12:40:30.352Z,83.47
2019-02-21T12:42:59.096Z,54.43
2019-02-21T12:45:30.038Z,25.47
2019-02-21T12:47:57.975Z,24.80
2019-02-21T12:50:26.465Z,26.07
2019-02-21T12:52:54.979Z,24.33
2019-02-21T12:55:29.459Z,26.00
2019-02-21T12:57:54.115Z,41.87
2019-02-21T13:00:23.061Z,55.70
2019-02-21T13:02:51.681Z,32.23
2019-02-21T13:05:20.252Z,22.43
2019-02-21T13:07:48.855Z,27.60
2019-02-21T13:10:19.162Z,30.50
2019-02-21T13:12:47.734Z,26.23
2019-02-21T13:15:16.390Z,22.00
2019-02-21T13:17:45.000Z,20.03
2019-02-21T13:20:14.545Z,21.63
2019-02-21T13:22:43.117Z,21.07
2019-02-21T13:25:15.324Z,24.40
2019-02-21T13:27:45.476Z,22.53
2019-02-21T13:30:15.861Z,22.17
2019-02-21T13:32:45.308Z,26.07
2019-02-21T13:35:14.097Z,19.47
2019-02-21T13:37:42.755Z,19.33
2019-02-21T13:40:15.759Z,19.00
2019-02-21T13:42:44.330Z,20.77
2019-02-21T13:45:17.592Z,18.80
2019-02-21T13:47:45.215Z,18.13
2019-02-21T13:50:19.518Z,20.67
2019-02-21T13:52:48.075Z,21.00
2019-02-21T13:55:16.686Z,20.00
2019-02-21T13:57:45.247Z,20.23
2019-02-21T14:00:19.166Z,21.97
2019-02-21T14:02:47.839Z,22.73
2019-02-21T14:05:16.924Z,23.40
2019-02-21T14:07:45.492Z,22.97
2019-02-21T14:10:14.506Z,21.30
2019-02-21T14:12:43.076Z,20.80
2019-02-21T14:15:23.221Z,18.30
2019-02-21T14:17:51.709Z,17.37
2019-02-21T14:20:20.206Z,15.87
2019-02-21T14:22:49.206Z,20.00
2019-02-21T14:25:17.914Z,20.07
2019-02-21T14:27:47.415Z,19.57
2019-02-21T14:30:18.235Z,22.50
2019-02-21T14:32:46.879Z,23.37
2019-02-21T14:35:15.602Z,16.33
2019-02-21T14:37:44.198Z,22.50
2019-02-21T14:40:17.206Z,18.97
2019-02-21T14:42:45.898Z,21.30
2019-02-21T14:45:19.333Z,19.33
2019-02-21T14:47:47.959Z,19.97
2019-02-21T14:50:16.580Z,18.53
2019-02-21T14:52:45.209Z,18.37
2019-02-21T14:55:17.595Z,18.07
2019-02-21T14:57:46.196Z,64.83
2019-02-21T15:00:26.154Z,70.30
2019-02-21T15:02:57.512Z,28.13
2019-02-21T15:05:24.972Z,27.10
2019-02-21T15:07:53.550Z,42.10
2019-02-21T15:10:22.158Z,64.00
2019-02-21T15:12:50.823Z,88.33
2019-02-21T15:15:24.797Z,58.03
2019-02-21T15:17:53.471Z,16.97
2019-02-21T15:20:22.118Z,66.47
2019-02-21T15:22:50.687Z,23.10
2019-02-21T15:25:19.372Z,21.97
2019-02-21T15:27:48.847Z,20.70
2019-02-21T15:30:20.582Z,25.30
2019-02-21T15:32:49.353Z,110.70
2019-02-21T15:35:19.513Z,102.43
2019-02-21T15:37:48.464Z,108.90
2019-02-21T15:40:17.118Z,103.73
2019-02-21T15:42:45.662Z,104.23
2019-02-21T15:45:22.914Z,78.67
2019-02-21T15:47:47.696Z,23.93
2019-02-21T15:50:16.331Z,22.43
2019-02-21T15:52:46.004Z,24.57
2019-02-21T15:55:16.661Z,101.83
2019-02-21T15:57:45.321Z,101.37
2019-02-21T16:00:16.550Z,96.40
2019-02-21T16:02:45.196Z,99.13
2019-02-21T16:05:13.769Z,101.97
2019-02-21T16:07:42.404Z,100.37
2019-02-21T16:10:17.050Z,101.67
2019-02-21T16:12:46.046Z,98.57
2019-02-21T16:15:16.405Z,104.37
2019-02-21T16:17:45.459Z,96.63
2019-02-21T16:20:17.950Z,103.97
2019-02-21T16:22:46.734Z,100.80
2019-02-21T16:25:18.981Z,97.40
2019-02-21T16:27:48.041Z,89.17
2019-02-21T16:30:17.319Z,91.43
2019-02-21T16:32:45.969Z,238.27
2019-02-21T16:35:15.013Z,94.10
2019-02-21T16:37:43.639Z,92.27
2019-02-21T16:40:17.109Z,90.77
2019-02-21T16:42:45.676Z,90.97
2019-02-21T16:45:22.253Z,95.63
2019-02-21T16:47:50.999Z,87.30
2019-02-21T16:50:29.166Z,90.20
2019-02-21T16:52:49.604Z,89.13
2019-02-21T16:55:19.689Z,87.10
2019-02-21T16:57:48.262Z,93.33
2019-02-21T17:00:21.899Z,97.60
2019-02-21T17:02:50.192Z,94.53
2019-02-21T17:05:18.816Z,89.47
2019-02-21T17:07:47.158Z,92.03
2019-02-21T17:10:16.508Z,96.60
2019-02-21T17:12:44.761Z,96.50
2019-02-21T17:15:17.982Z,98.73
2019-02-21T17:17:46.548Z,95.20
2019-02-21T17:20:15.787Z,94.17
2019-02-21T17:22:44.473Z,100.03
2019-02-21T17:25:13.930Z,93.77
2019-02-21T17:27:42.738Z,96.60
2019-02-21T17:30:12.702Z,96.97
2019-02-21T17:32:40.963Z,86.97
2019-02-21T17:35:09.555Z,98.47
2019-02-21T17:37:38.245Z,94.80
2019-02-21T17:40:08.006Z,92.33
2019-02-21T17:42:36.918Z,96.67
2019-02-21T17:45:05.887Z,99.03
2019-02-21T17:47:34.462Z,100.47
2019-02-21T17:50:03.459Z,96.30
2019-02-21T17:52:32.067Z,94.93
2019-02-21T17:55:00.413Z,96.73
2019-02-21T17:57:30.022Z,99.77
2019-02-21T17:59:58.708Z,105.00
2019-02-21T18:02:27.037Z,100.10
2019-02-21T18:04:55.383Z,98.63
2019-02-21T18:07:24.276Z,100.67
2019-02-21T18:09:52.848Z,91.23
2019-02-21T18:12:21.239Z,101.77
2019-02-21T18:14:49.853Z,98.60
2019-02-21T18:17:18.574Z,100.03
2019-02-21T18:19:47.219Z,104.00
2019-02-21T18:22:15.948Z,106.47
2019-02-21T18:24:44.701Z,103.13
2019-02-21T18:27:13.350Z,103.60
2019-02-21T18:29:43.804Z,103.60
2019-02-21T18:32:12.452Z,100.50
2019-02-21T18:34:41.108Z,103.73
2019-02-21T18:37:09.558Z,105.10
2019-02-21T18:39:38.141Z,102.50
2019-02-21T18:42:06.720Z,102.43
2019-02-21T18:44:37.465Z,95.37
2019-02-21T18:47:05.711Z,114.43
2019-02-21T18:49:34.377Z,103.23
2019-02-21T18:52:02.755Z,98.10
2019-02-21T18:54:34.078Z,101.90
2019-02-21T18:57:02.806Z,103.63
2019-02-21T18:59:32.102Z,100.47
2019-02-21T19:02:04.950Z,97.97
2019-02-21T19:04:36.388Z,95.37
2019-02-21T19:07:04.961Z,94.23
2019-02-21T19:09:33.476Z,95.10
2019-02-21T19:12:02.211Z,136.47
2019-02-21T19:14:30.916Z,98.27
2019-02-21T19:17:04.460Z,97.93
2019-02-21T19:19:37.409Z,99.23
2019-02-21T19:22:12.366Z,97.87
2019-02-21T19:24:41.038Z,98.93
2019-02-21T19:27:11.409Z,97.43
2019-02-21T19:29:40.133Z,95.93
2019-02-21T19:32:08.751Z,99.47
2019-02-21T19:34:37.029Z,100.67
2019-02-21T19:37:13.122Z,97.53
2019-02-21T19:39:41.838Z,97.23
2019-02-21T19:42:14.590Z,100.33
2019-02-21T19:44:43.244Z,101.17
2019-02-21T19:47:12.571Z,96.77
2019-02-21T19:49:40.900Z,106.00
2019-02-21T19:52:11.155Z,93.87
2019-02-21T19:54:40.934Z,99.07
2019-02-21T19:57:09.981Z,99.23
2019-02-21T19:59:42.783Z,99.57
2019-02-21T20:02:13.156Z,110.50
2019-02-21T20:04:41.892Z,102.60
2019-02-21T20:07:10.606Z,97.57
2019-02-21T20:09:39.382Z,104.47
2019-02-21T20:12:08.025Z,101.13
2019-02-21T20:14:36.604Z,138.30
2019-02-21T20:17:05.210Z,121.60
2019-02-21T20:19:33.536Z,119.23
2019-02-21T20:22:02.380Z,105.43
2019-02-21T20:24:31.060Z,102.93
2019-02-21T20:27:00.435Z,114.93
2019-02-21T20:29:29.390Z,102.23
2019-02-21T20:31:58.084Z,106.90
2019-02-21T20:34:26.736Z,109.17
2019-02-21T20:36:55.296Z,121.33
2019-02-21T20:39:23.946Z,106.83
2019-02-21T20:41:52.217Z,111.20
2019-02-21T20:44:21.629Z,109.70
2019-02-21T20:46:50.320Z,96.17
2019-02-21T20:49:18.955Z,103.83
2019-02-21T20:51:47.544Z,98.17
2019-02-21T20:54:15.987Z,102.10
2019-02-21T20:56:44.635Z,94.83
2019-02-21T20:59:14.511Z,95.73
2019-02-21T21:01:43.224Z,97.93
2019-02-21T21:04:11.878Z,99.00
2019-02-21T21:06:40.496Z,96.50
2019-02-21T21:09:08.795Z,98.40
2019-02-21T21:11:37.775Z,95.57
2019-02-21T21:14:06.434Z,99.97
2019-02-21T21:16:35.158Z,109.90
2019-02-21T21:19:03.767Z,102.53
2019-02-21T21:21:35.016Z,103.60
2019-02-21T21:24:04.108Z,101.20
2019-02-21T21:26:35.800Z,101.20
2019-02-21T21:29:04.453Z,101.47
2019-02-21T21:31:33.148Z,119.53
2019-02-21T21:34:01.789Z,100.73
2019-02-21T21:36:30.458Z,98.80
2019-02-21T21:38:58.822Z,97.33
2019-02-21T21:41:27.307Z,95.83
2019-02-21T21:43:55.882Z,95.00
2019-02-21T21:46:24.267Z,99.93
2019-02-21T21:48:52.916Z,124.20
2019-02-21T21:51:21.589Z,146.90
2019-02-21T21:53:50.325Z,102.67
2019-02-21T21:56:18.596Z,105.33
2019-02-21T21:58:47.195Z,93.57
2019-02-21T22:01:15.874Z,96.50
2019-02-21T22:03:44.527Z,162.80
2019-02-21T22:06:13.166Z,93.67
2019-02-21T22:08:41.843Z,95.50
2019-02-21T22:11:10.415Z,92.47
2019-02-21T22:13:40.617Z,95.07
2019-02-21T22:16:09.226Z,95.80
2019-02-21T22:18:37.791Z,91.17
2019-02-21T22:21:06.431Z,91.70
2019-02-21T22:23:35.113Z,91.00
2019-02-21T22:26:03.688Z,94.40
2019-02-21T22:28:32.254Z,96.30
2019-02-21T22:31:00.874Z,89.27
2019-02-21T22:33:29.435Z,92.57
2019-02-21T22:35:58.075Z,92.40
2019-02-21T22:38:26.764Z,95.77
2019-02-21T22:40:56.622Z,88.23
2019-02-21T22:43:25.258Z,92.70
2019-02-21T22:45:53.941Z,90.40
2019-02-21T22:48:22.585Z,93.60
2019-02-21T22:50:51.170Z,88.37
2019-02-21T22:53:20.157Z,93.60
2019-02-21T22:55:48.733Z,87.27
2019-02-21T22:58:17.255Z,89.27
2019-02-21T23:00:58.891Z,92.60
2019-02-21T23:03:42.527Z,92.87
2019-02-21T23:06:49.316Z,91.63
2019-02-21T23:09:27.083Z,94.70
2019-02-21T23:11:50.053Z,91.23
2019-02-21T23:14:19.479Z,90.97
2019-02-21T23:16:48.311Z,91.53
2019-02-21T23:19:16.949Z,92.33
2019-02-21T23:21:45.556Z,96.90
2019-02-21T23:24:14.124Z,89.13
2019-02-21T23:26:42.694Z,91.57
2019-02-21T23:29:11.373Z,89.80
2019-02-21T23:31:39.954Z,89.50
2019-02-21T23:34:25.874Z,85.43
2019-02-21T23:36:54.520Z,88.10
2019-02-21T23:39:23.025Z,91.43
2019-02-21T23:41:53.780Z,90.97
2019-02-21T23:44:22.042Z,87.90
2019-02-21T23:46:50.646Z,85.40
2019-02-21T23:49:19.185Z,85.87
2019-02-21T23:51:47.750Z,84.07
2019-02-21T23:54:16.321Z,83.90
2019-02-21T23:56:45.003Z,79.73
2019-02-21T23:59:13.495Z,83.27
